Time;durP1;ratioP1;P1;durP2;ratioP2;P2;SDS_P1;SDS_P2;PMS_P1;PMS_P2;Temp;Humidity;BMP_temperature;BMP_pressure;BME280_temperature;BME280_humidity;BME280_pressure;Samples;Min_cycle;Max_cycle;Signal;HPM_P1;HPM_P2
2021/10/07 00:01:42;;;;;;;4.40;1.73;;;;;;;;;;4974131;28;20223;-79
2021/10/07 00:04:47;;;;;;;2.00;1.50;;;;;;;;;;4963075;29;20578;-79
2021/10/07 00:07:51;;;;;;;2.90;1.37;;;;;;;;;;4962695;29;20619;-79
2021/10/07 00:10:55;;;;;;;2.23;1.50;;;;;;;;;;4971769;28;20219;-78
2021/10/07 00:14:01;;;;;;;3.97;2.03;;;;;;;;;;4940734;29;20200;-78
2021/10/07 00:17:05;;;;;;;7.00;2.03;;;;;;;;;;4956590;29;20643;-79
2021/10/07 00:20:11;;;;;;;2.77;1.80;;;;;;;;;;4960639;29;20180;-78
2021/10/07 00:23:21;;;;;;;2.70;2.07;;;;;;;;;;4959876;29;20192;-79
2021/10/07 00:26:25;;;;;;;2.30;2.10;;;;;;;;;;4971406;28;20191;-79
2021/10/07 00:32:42;;;;;;;3.10;1.80;;;;;;;;;;4943517;29;20231;-78
2021/10/07 00:36:04;;;;;;;4.27;2.20;;;;;;;;;;4971121;28;20199;-78
2021/10/07 00:39:08;;;;;;;3.60;2.00;;;;;;;;;;4960337;29;20219;-78
2021/10/07 00:42:13;;;;;;;2.83;1.90;;;;;;;;;;4970546;28;20219;-78
2021/10/07 00:45:17;;;;;;;3.10;2.03;;;;;;;;;;4949331;29;20191;-78
2021/10/07 00:48:21;;;;;;;2.00;1.70;;;;;;;;;;4960031;29;20187;-78
2021/10/07 00:51:27;;;;;;;4.07;1.77;;;;;;;;;;4959942;29;20219;-78
2021/10/07 00:54:32;;;;;;;1.93;1.70;;;;;;;;;;4959679;29;20195;-78
2021/10/07 00:57:36;;;;;;;3.27;1.80;;;;;;;;;;4959831;29;20188;-78
2021/10/07 01:00:42;;;;;;;2.43;1.93;;;;;;;;;;4959946;29;20207;-78
2021/10/07 01:03:46;;;;;;;2.43;1.80;;;;;;;;;;4959512;29;20200;-78
2021/10/07 01:06:50;;;;;;;4.30;1.90;;;;;;;;;;4959127;29;20195;-78
2021/10/07 01:09:54;;;;;;;3.77;2.00;;;;;;;;;;4959006;29;20180;-78
2021/10/07 01:12:58;;;;;;;2.77;1.77;;;;;;;;;;4970365;28;20635;-78
2021/10/07 01:16:02;;;;;;;3.30;2.17;;;;;;;;;;4959930;29;20187;-78
2021/10/07 01:19:07;;;;;;;4.27;2.27;;;;;;;;;;4969532;28;20203;-78
2021/10/07 01:22:12;;;;;;;4.17;2.13;;;;;;;;;;4959041;28;20566;-78
2021/10/07 01:25:16;;;;;;;2.93;1.97;;;;;;;;;;4958398;29;20188;-78
2021/10/07 01:28:20;;;;;;;3.63;2.10;;;;;;;;;;4938939;29;20188;-78
2021/10/07 01:31:24;;;;;;;2.90;1.87;;;;;;;;;;4940857;29;20227;-78
2021/10/07 01:34:30;;;;;;;2.67;2.00;;;;;;;;;;4957506;29;20207;-78
2021/10/07 01:37:34;;;;;;;4.50;2.00;;;;;;;;;;4968947;28;20191;-78
2021/10/07 01:40:39;;;;;;;3.40;1.70;;;;;;;;;;4947497;29;20176;-78
2021/10/07 01:43:44;;;;;;;2.80;1.60;;;;;;;;;;4958239;29;20646;-78
2021/10/07 01:46:48;;;;;;;2.70;2.20;;;;;;;;;;4969615;28;20188;-78
2021/10/07 01:49:53;;;;;;;2.93;1.57;;;;;;;;;;4969906;28;20631;-78
2021/10/07 01:52:57;;;;;;;3.10;2.33;;;;;;;;;;4958999;29;20187;-78
2021/10/07 01:56:01;;;;;;;2.07;1.70;;;;;;;;;;4947340;29;20199;-78
2021/10/07 01:59:05;;;;;;;5.97;2.00;;;;;;;;;;4969895;28;20686;-78
2021/10/07 02:02:09;;;;;;;3.00;2.00;;;;;;;;;;4969048;28;20686;-78
2021/10/07 02:05:14;;;;;;;5.73;1.80;;;;;;;;;;4948021;29;20184;-78
2021/10/07 02:08:18;;;;;;;2.77;1.80;;;;;;;;;;4951185;29;20207;-78
2021/10/07 02:11:23;;;;;;;2.53;1.83;;;;;;;;;;4958515;29;20218;-78
2021/10/07 02:14:28;;;;;;;4.00;1.73;;;;;;;;;;4958660;29;20195;-78
2021/10/07 02:17:32;;;;;;;3.07;1.90;;;;;;;;;;4968766;28;20207;-78
2021/10/07 02:20:37;;;;;;;2.27;1.80;;;;;;;;;;4957705;29;20187;-78
2021/10/07 02:23:41;;;;;;;2.80;2.13;;;;;;;;;;4968983;28;20175;-78
2021/10/07 02:26:45;;;;;;;3.83;2.00;;;;;;;;;;4968410;28;20654;-78
2021/10/07 02:29:50;;;;;;;2.07;1.80;;;;;;;;;;4958757;29;20187;-78
2021/10/07 02:32:55;;;;;;;3.53;2.00;;;;;;;;;;4957932;29;20207;-78
2021/10/07 02:35:59;;;;;;;1.93;1.70;;;;;;;;;;4959191;29;20547;-77
2021/10/07 02:39:03;;;;;;;6.00;1.93;;;;;;;;;;4968723;28;20208;-78
2021/10/07 02:42:08;;;;;;;2.07;1.67;;;;;;;;;;4956916;29;20231;-78
2021/10/07 02:45:17;;;;;;;2.60;1.73;;;;;;;;;;4957688;29;20183;-78
2021/10/07 02:48:21;;;;;;;2.43;1.73;;;;;;;;;;4969151;28;20188;-78
2021/10/07 02:51:25;;;;;;;3.67;1.97;;;;;;;;;;4958455;29;20219;-78
2021/10/07 02:54:29;;;;;;;3.23;1.90;;;;;;;;;;4938387;29;20184;-78
2021/10/07 02:57:33;;;;;;;2.87;1.77;;;;;;;;;;4939828;29;20199;-78
2021/10/07 03:00:37;;;;;;;2.17;1.73;;;;;;;;;;4957740;29;20617;-78
2021/10/07 03:03:42;;;;;;;1.90;1.70;;;;;;;;;;4958836;29;20192;-78
2021/10/07 03:06:46;;;;;;;4.20;1.50;;;;;;;;;;4959401;28;20203;-78
2021/10/07 03:09:50;;;;;;;1.50;1.40;;;;;;;;;;4961222;29;20187;-78
2021/10/07 03:12:54;;;;;;;3.00;1.80;;;;;;;;;;4942134;29;20184;-78
2021/10/07 03:15:58;;;;;;;2.03;1.63;;;;;;;;;;4963173;28;20554;-78
2021/10/07 03:19:02;;;;;;;2.83;1.90;;;;;;;;;;4972505;28;20555;-77
2021/10/07 03:22:07;;;;;;;2.20;1.70;;;;;;;;;;4972071;28;20227;-78
2021/10/07 03:25:11;;;;;;;2.33;1.80;;;;;;;;;;4961337;29;20203;-78
2021/10/07 03:28:15;;;;;;;3.80;1.97;;;;;;;;;;4961092;29;20204;-78
2021/10/07 03:31:19;;;;;;;3.70;1.80;;;;;;;;;;4971139;28;20227;-78
2021/10/07 03:34:23;;;;;;;2.03;1.60;;;;;;;;;;4971174;28;20199;-78
2021/10/07 03:37:28;;;;;;;2.33;1.60;;;;;;;;;;4940984;29;20199;-78
2021/10/07 03:40:32;;;;;;;2.80;1.70;;;;;;;;;;4971612;28;20227;-78
2021/10/07 03:43:37;;;;;;;4.17;1.63;;;;;;;;;;4949933;29;20184;-77
2021/10/07 03:46:42;;;;;;;2.97;1.77;;;;;;;;;;4960242;29;20554;-78
2021/10/07 03:49:47;;;;;;;2.83;1.67;;;;;;;;;;4971427;28;20195;-78
2021/10/07 03:52:51;;;;;;;3.70;2.10;;;;;;;;;;4971371;28;20195;-78
2021/10/07 03:55:55;;;;;;;3.07;1.50;;;;;;;;;;4971770;28;20183;-78
2021/10/07 03:58:59;;;;;;;2.40;1.73;;;;;;;;;;4971285;28;20236;-78
2021/10/07 04:02:03;;;;;;;1.93;1.50;;;;;;;;;;5064702;22;20223;-91
2021/10/07 04:05:09;;;;;;;1.60;1.50;;;;;;;;;;5040777;28;20662;-91
2021/10/07 04:08:13;;;;;;;3.67;1.80;;;;;;;;;;5019430;28;20640;-91
2021/10/07 04:11:19;;;;;;;2.40;1.93;;;;;;;;;;5012076;28;20224;-90
2021/10/07 04:14:24;;;;;;;3.50;1.90;;;;;;;;;;5012398;28;20192;-91
2021/10/07 04:17:28;;;;;;;3.57;2.33;;;;;;;;;;5034707;28;20180;-91
2021/10/07 04:20:32;;;;;;;3.60;2.20;;;;;;;;;;5023400;28;20587;-91
2021/10/07 04:23:36;;;;;;;2.00;1.80;;;;;;;;;;5011896;28;20177;-91
2021/10/07 04:26:40;;;;;;;4.00;2.10;;;;;;;;;;5022719;28;20188;-91
2021/10/07 04:29:44;;;;;;;4.73;1.83;;;;;;;;;;5018502;28;20554;-91
2021/10/07 04:32:48;;;;;;;2.30;1.60;;;;;;;;;;5031306;28;20199;-91
2021/10/07 04:35:52;;;;;;;1.60;1.50;;;;;;;;;;5031154;28;20203;-90
2021/10/07 04:38:56;;;;;;;2.73;1.80;;;;;;;;;;5018978;28;20204;-91
2021/10/07 04:42:00;;;;;;;3.53;2.07;;;;;;;;;;5011432;28;20220;-90
2021/10/07 04:45:05;;;;;;;2.60;1.90;;;;;;;;;;5022759;28;20177;-90
2021/10/07 04:48:12;;;;;;;4.17;2.10;;;;;;;;;;5028980;28;20201;-90
2021/10/07 04:51:16;;;;;;;4.27;1.83;;;;;;;;;;5022826;28;20214;-91
2021/10/07 04:54:20;;;;;;;3.60;1.90;;;;;;;;;;5011660;28;20197;-90
2021/10/07 04:57:24;;;;;;;4.40;1.60;;;;;;;;;;5012971;28;20556;-90
2021/10/07 05:00:28;;;;;;;2.90;1.83;;;;;;;;;;5010755;28;20224;-91
2021/10/07 05:03:32;;;;;;;1.57;1.30;;;;;;;;;;5030352;28;20187;-90
2021/10/07 05:06:36;;;;;;;3.37;1.63;;;;;;;;;;5031013;28;20179;-90
2021/10/07 05:09:41;;;;;;;3.07;1.73;;;;;;;;;;5031440;28;20176;-91
2021/10/07 05:12:44;;;;;;;2.00;1.50;;;;;;;;;;5019643;28;20184;-90
2021/10/07 05:15:48;;;;;;;4.13;2.10;;;;;;;;;;5010998;28;20189;-90
2021/10/07 05:18:53;;;;;;;10.67;9.10;;;;;;;;;;5011162;28;20177;-90
2021/10/07 05:21:57;;;;;;;9.50;4.10;;;;;;;;;;5011206;28;20208;-90
2021/10/07 05:25:02;;;;;;;6.30;3.60;;;;;;;;;;5011042;28;20184;-91
2021/10/07 05:28:07;;;;;;;6.17;3.13;;;;;;;;;;5011273;28;20182;-90
2021/10/07 05:31:11;;;;;;;8.47;3.00;;;;;;;;;;5010506;28;20216;-91
2021/10/07 05:34:16;;;;;;;3.23;2.80;;;;;;;;;;5001877;28;20188;-90
2021/10/07 05:37:21;;;;;;;5.30;3.03;;;;;;;;;;5010733;28;20181;-91
2021/10/07 05:40:25;;;;;;;10.70;2.70;;;;;;;;;;5021866;28;20228;-91
2021/10/07 05:43:29;;;;;;;5.10;2.70;;;;;;;;;;5022320;28;20177;-90
2021/10/07 05:46:33;;;;;;;4.47;2.80;;;;;;;;;;4999469;28;20181;-91
2021/10/07 05:49:39;;;;;;;3.87;2.43;;;;;;;;;;5010671;28;20272;-90
2021/10/07 05:52:43;;;;;;;5.20;2.73;;;;;;;;;;5021705;28;20185;-91
2021/10/07 05:55:47;;;;;;;4.57;2.57;;;;;;;;;;4999293;28;20185;-91
2021/10/07 05:58:51;;;;;;;2.97;2.47;;;;;;;;;;5010573;28;20185;-91
2021/10/07 06:01:56;;;;;;;2.93;2.40;;;;;;;;;;4999108;28;20228;-91
2021/10/07 06:05:00;;;;;;;3.13;2.30;;;;;;;;;;5010542;28;20631;-91
2021/10/07 06:08:05;;;;;;;2.43;2.17;;;;;;;;;;5033288;28;20199;-91
2021/10/07 06:11:09;;;;;;;2.83;2.17;;;;;;;;;;5052860;28;20219;-91
2021/10/07 06:14:14;;;;;;;8.83;4.97;;;;;;;;;;5041160;28;20192;-91
2021/10/07 06:17:17;;;;;;;5.60;3.80;;;;;;;;;;5041263;28;20547;-91
2021/10/07 06:20:30;;;;;;;6.70;2.80;;;;;;;;;;5029927;28;20208;-90
2021/10/07 06:23:36;;;;;;;3.47;2.20;;;;;;;;;;5041247;28;20629;-91
2021/10/07 06:26:40;;;;;;;2.60;2.10;;;;;;;;;;5041396;28;20188;-90
2021/10/07 06:29:45;;;;;;;4.17;2.30;;;;;;;;;;5053082;28;20176;-90
2021/10/07 06:32:49;;;;;;;3.80;3.23;;;;;;;;;;5035310;28;20573;-89
2021/10/07 06:35:56;;;;;;;4.33;3.00;;;;;;;;;;5034354;28;20189;-90
2021/10/07 06:39:00;;;;;;;5.70;3.40;;;;;;;;;;5030237;28;20184;-90
2021/10/07 06:42:04;;;;;;;3.80;2.67;;;;;;;;;;5024962;28;20212;-90
2021/10/07 06:45:09;;;;;;;2.97;2.60;;;;;;;;;;5025182;28;20181;-90
2021/10/07 06:48:13;;;;;;;2.60;2.13;;;;;;;;;;5013890;28;20189;-90
2021/10/07 06:51:18;;;;;;;4.57;2.70;;;;;;;;;;5025161;28;20571;-90
2021/10/07 06:54:22;;;;;;;2.17;1.73;;;;;;;;;;5025171;28;20181;-90
2021/10/07 06:57:26;;;;;;;3.33;2.40;;;;;;;;;;5013472;28;20204;-90
2021/10/07 07:00:31;;;;;;;4.33;2.30;;;;;;;;;;5013567;28;20236;-91
2021/10/07 07:03:35;;;;;;;4.03;2.50;;;;;;;;;;5024812;28;20181;-90
2021/10/07 07:06:39;;;;;;;3.23;2.53;;;;;;;;;;5036987;28;20201;-90
2021/10/07 07:09:44;;;;;;;3.63;2.53;;;;;;;;;;5013652;28;20520;-90
2021/10/07 07:12:50;;;;;;;3.13;2.30;;;;;;;;;;5025010;28;20184;-90
2021/10/07 07:15:54;;;;;;;3.73;2.40;;;;;;;;;;5002360;28;20180;-90
2021/10/07 07:18:59;;;;;;;4.50;2.30;;;;;;;;;;5038760;28;20196;-90
2021/10/07 07:22:03;;;;;;;3.77;2.23;;;;;;;;;;5012831;28;20569;-90
2021/10/07 07:25:08;;;;;;;5.47;2.50;;;;;;;;;;5013673;28;20181;-91
2021/10/07 07:28:12;;;;;;;3.63;2.60;;;;;;;;;;5014779;28;20185;-90
2021/10/07 07:31:20;;;;;;;3.80;2.60;;;;;;;;;;5032341;28;20216;-89
2021/10/07 07:34:27;;;;;;;4.17;2.63;;;;;;;;;;5044420;28;20184;-90
2021/10/07 07:37:30;;;;;;;4.13;2.70;;;;;;;;;;5021084;28;20200;-90
2021/10/07 07:40:35;;;;;;;4.77;3.03;;;;;;;;;;5032433;28;20227;-90
2021/10/07 07:43:40;;;;;;;4.23;2.47;;;;;;;;;;5032931;28;20185;-90
2021/10/07 07:46:44;;;;;;;4.87;2.60;;;;;;;;;;5020869;28;20196;-89
2021/10/07 07:49:49;;;;;;;3.37;2.70;;;;;;;;;;5032486;28;20649;-90
2021/10/07 07:52:54;;;;;;;3.07;2.53;;;;;;;;;;5005285;28;20192;-90
2021/10/07 07:55:58;;;;;;;4.23;3.20;;;;;;;;;;5043963;28;20180;-90
2021/10/07 07:59:02;;;;;;;5.43;2.90;;;;;;;;;;5039149;28;20195;-90
2021/10/07 08:02:07;;;;;;;4.50;3.47;;;;;;;;;;5019453;28;20227;-90
2021/10/07 08:05:11;;;;;;;6.00;3.00;;;;;;;;;;5023491;28;20197;-90
2021/10/07 08:08:15;;;;;;;4.37;3.60;;;;;;;;;;5029241;28;20192;-90
2021/10/07 08:11:19;;;;;;;16.10;9.43;;;;;;;;;;5026874;28;20213;-90
2021/10/07 08:14:24;;;;;;;6.27;5.00;;;;;;;;;;5017280;28;20193;-90
2021/10/07 08:17:29;;;;;;;11.03;4.70;;;;;;;;;;5012350;28;20185;-90
2021/10/07 08:20:33;;;;;;;5.60;3.80;;;;;;;;;;5000954;28;20695;-90
2021/10/07 08:23:37;;;;;;;8.70;4.20;;;;;;;;;;5023363;28;20193;-90
2021/10/07 08:26:41;;;;;;;16.60;9.33;;;;;;;;;;5023275;28;20632;-90
2021/10/07 08:29:46;;;;;;;10.90;7.20;;;;;;;;;;5012298;28;20180;-90
2021/10/07 08:32:50;;;;;;;7.07;4.13;;;;;;;;;;5000526;28;20193;-90
2021/10/07 08:35:54;;;;;;;8.33;4.13;;;;;;;;;;5000705;28;20185;-90
2021/10/07 08:38:59;;;;;;;6.07;3.93;;;;;;;;;;5041931;28;20212;-90
2021/10/07 08:42:04;;;;;;;7.13;3.63;;;;;;;;;;5031424;28;20224;-90
2021/10/07 08:45:13;;;;;;;5.27;3.40;;;;;;;;;;5009505;28;20189;-90
2021/10/07 08:48:18;;;;;;;6.50;3.47;;;;;;;;;;5022638;28;20193;-90
2021/10/07 08:51:22;;;;;;;4.30;3.37;;;;;;;;;;5022572;28;20224;-90
2021/10/07 08:54:26;;;;;;;5.40;3.23;;;;;;;;;;5016112;28;20188;-90
2021/10/07 08:57:30;;;;;;;7.07;3.80;;;;;;;;;;5011634;28;20648;-90
2021/10/07 09:00:34;;;;;;;5.33;3.80;;;;;;;;;;5002101;28;20687;-89
2021/10/07 09:03:40;;;;;;;6.77;3.50;;;;;;;;;;5007330;28;20192;-90
2021/10/07 09:06:46;;;;;;;5.43;3.50;;;;;;;;;;5011342;28;20648;-90
2021/10/07 09:09:56;;;;;;;5.13;3.37;;;;;;;;;;5021562;28;20666;-90
2021/10/07 09:13:04;;;;;;;6.70;3.77;;;;;;;;;;5025914;28;20192;-90
2021/10/07 09:16:08;;;;;;;5.57;3.10;;;;;;;;;;5021891;28;20189;-90
2021/10/07 09:19:14;;;;;;;8.27;3.83;;;;;;;;;;5019132;28;20195;-90
2021/10/07 09:22:33;;;;;;;10.70;3.40;;;;;;;;;;5012689;28;20215;-90
2021/10/07 09:25:57;;;;;;;6.07;3.30;;;;;;;;;;5017802;28;20667;-89
2021/10/07 09:29:01;;;;;;;5.90;3.10;;;;;;;;;;5008075;28;20193;-89
2021/10/07 09:32:07;;;;;;;4.23;3.07;;;;;;;;;;5030323;28;20215;-90
2021/10/07 09:35:14;;;;;;;8.07;3.27;;;;;;;;;;5011809;28;20537;-90
2021/10/07 09:38:20;;;;;;;4.27;2.60;;;;;;;;;;5003750;28;20193;-90
2021/10/07 09:41:31;;;;;;;7.90;2.87;;;;;;;;;;5018002;28;20580;-89
2021/10/07 09:44:35;;;;;;;6.60;3.10;;;;;;;;;;5002419;28;20200;-90
2021/10/07 09:47:46;;;;;;;5.27;2.97;;;;;;;;;;4999414;28;20185;-90
2021/10/07 09:50:50;;;;;;;9.10;2.83;;;;;;;;;;5010541;28;20212;-90
2021/10/07 09:54:03;;;;;;;4.97;2.57;;;;;;;;;;5027754;28;20547;-89
2021/10/07 09:57:07;;;;;;;7.97;3.20;;;;;;;;;;5007838;28;20192;-90
2021/10/07 10:00:12;;;;;;;16.60;6.73;;;;;;;;;;4999011;28;20197;-90
2021/10/07 10:03:17;;;;;;;28.97;13.07;;;;;;;;;;5017154;23;20573;-86
2021/10/07 10:06:22;;;;;;;9.53;5.17;;;;;;;;;;4973717;28;20202;-86
2021/10/07 10:09:27;;;;;;;5.17;3.07;;;;;;;;;;4969190;28;20201;-86
2021/10/07 10:12:31;;;;;;;11.80;4.53;;;;;;;;;;4982810;28;20210;-86
2021/10/07 10:15:37;;;;;;;8.30;5.20;;;;;;;;;;4991388;28;20190;-86
2021/10/07 10:18:42;;;;;;;6.60;3.20;;;;;;;;;;4980919;28;20190;-86
2021/10/07 10:21:47;;;;;;;7.80;2.90;;;;;;;;;;4984626;28;20206;-86
2021/10/07 10:24:52;;;;;;;5.23;3.10;;;;;;;;;;4997193;28;20202;-86
2021/10/07 10:28:06;;;;;;;5.93;3.00;;;;;;;;;;4985624;28;20665;-87
2021/10/07 10:31:17;;;;;;;4.73;2.80;;;;;;;;;;5008261;28;20198;-87
2021/10/07 10:34:23;;;;;;;8.27;2.63;;;;;;;;;;5008754;28;20189;-87
2021/10/07 10:37:26;;;;;;;6.20;3.43;;;;;;;;;;4997973;28;20637;-87
2021/10/07 10:40:30;;;;;;;5.03;2.23;;;;;;;;;;4986399;28;20178;-87
2021/10/07 10:43:36;;;;;;;3.70;2.17;;;;;;;;;;4997027;28;20218;-87
2021/10/07 10:46:40;;;;;;;3.63;2.10;;;;;;;;;;4997599;28;20210;-84
2021/10/07 10:49:50;;;;;;;4.10;2.40;;;;;;;;;;4997276;28;20522;-85
2021/10/07 10:52:57;;;;;;;2.97;2.13;;;;;;;;;;4997124;28;20217;-85
2021/10/07 10:56:04;;;;;;;4.07;2.13;;;;;;;;;;4997094;28;20187;-85
2021/10/07 10:59:17;;;;;;;5.70;2.33;;;;;;;;;;4997342;28;20182;-85
2021/10/07 11:02:22;;;;;;;4.13;2.60;;;;;;;;;;4996549;28;20226;-87
2021/10/07 11:05:28;;;;;;;3.37;2.20;;;;;;;;;;4974961;28;20190;-87
2021/10/07 11:08:51;;;;;;;6.80;2.20;;;;;;;;;;4996613;28;20178;-87
2021/10/07 11:11:56;;;;;;;4.03;2.00;;;;;;;;;;4996789;28;20514;-87
2021/10/07 11:15:00;;;;;;;3.07;1.60;;;;;;;;;;4996787;28;20190;-87
2021/10/07 11:18:04;;;;;;;4.80;1.83;;;;;;;;;;4985760;28;20186;-87
2021/10/07 11:21:15;;;;;;;6.67;1.83;;;;;;;;;;5007904;28;20186;-87
2021/10/07 11:24:19;;;;;;;3.70;2.10;;;;;;;;;;4996629;28;20198;-87
2021/10/07 11:27:30;;;;;;;7.93;2.10;;;;;;;;;;4995763;28;20618;-88
2021/10/07 11:30:38;;;;;;;6.20;2.33;;;;;;;;;;4996330;28;20190;-87
2021/10/07 11:33:45;;;;;;;2.07;1.40;;;;;;;;;;4985251;28;20218;-87
2021/10/07 11:36:52;;;;;;;2.43;1.53;;;;;;;;;;4996346;28;20186;-87
2021/10/07 11:40:22;;;;;;;3.93;1.50;;;;;;;;;;4996578;28;20178;-87
2021/10/07 11:43:29;;;;;;;2.50;1.33;;;;;;;;;;4996123;28;20206;-86
2021/10/07 11:46:35;;;;;;;3.83;1.57;;;;;;;;;;4995918;28;20186;-88
2021/10/07 11:49:39;;;;;;;6.13;1.50;;;;;;;;;;4985287;28;20182;-88
2021/10/07 11:52:44;;;;;;;7.30;1.97;;;;;;;;;;4984021;28;20217;-87
2021/10/07 11:55:48;;;;;;;9.67;2.17;;;;;;;;;;4973007;28;20190;-87
2021/10/07 11:58:57;;;;;;;11.87;1.50;;;;;;;;;;4987416;28;20202;-86
2021/10/07 12:02:02;;;;;;;1.87;1.20;;;;;;;;;;4983788;28;20206;-87
2021/10/07 12:05:19;;;;;;;3.67;1.40;;;;;;;;;;4994669;28;20225;-87
2021/10/07 12:08:26;;;;;;;3.03;1.10;;;;;;;;;;4989785;28;20198;-87
2021/10/07 12:11:33;;;;;;;64.93;4.73;;;;;;;;;;4991971;28;20526;-87
2021/10/07 12:14:41;;;;;;;3.33;1.53;;;;;;;;;;5006129;28;20538;-87
2021/10/07 12:17:45;;;;;;;3.60;1.10;;;;;;;;;;4995182;28;20186;-87
2021/10/07 12:20:59;;;;;;;7.27;1.60;;;;;;;;;;4983980;28;20193;-87
2021/10/07 12:24:14;;;;;;;3.17;1.30;;;;;;;;;;4995244;28;20210;-87
2021/10/07 12:27:18;;;;;;;1.10;0.90;;;;;;;;;;4984418;28;20194;-87
2021/10/07 12:30:22;;;;;;;4.93;1.30;;;;;;;;;;4983381;28;20198;-87
2021/10/07 12:33:31;;;;;;;1.93;1.00;;;;;;;;;;4994865;28;20214;-87
2021/10/07 12:36:39;;;;;;;2.27;0.97;;;;;;;;;;4994609;28;20194;-86
2021/10/07 12:39:52;;;;;;;7.77;1.30;;;;;;;;;;4983983;28;20178;-87
2021/10/07 12:42:55;;;;;;;5.70;1.27;;;;;;;;;;4995182;28;20563;-87
2021/10/07 12:46:05;;;;;;;7.20;1.63;;;;;;;;;;4994991;28;20190;-87
2021/10/07 12:49:09;;;;;;;7.27;1.77;;;;;;;;;;4972766;28;20194;-87
2021/10/07 12:52:25;;;;;;;7.47;1.30;;;;;;;;;;4994909;28;20217;-87
2021/10/07 12:55:29;;;;;;;6.03;1.80;;;;;;;;;;5006546;28;20634;-87
2021/10/07 12:58:33;;;;;;;3.03;1.07;;;;;;;;;;4994869;28;20189;-87
2021/10/07 13:01:41;;;;;;;3.40;1.40;;;;;;;;;;4994507;28;20202;-87
2021/10/07 13:04:46;;;;;;;2.83;1.57;;;;;;;;;;5005988;28;20186;-87
2021/10/07 13:07:58;;;;;;;25.33;3.00;;;;;;;;;;5005592;28;20191;-87
2021/10/07 13:11:02;;;;;;;5.73;1.53;;;;;;;;;;5005843;28;20190;-87
2021/10/07 13:14:07;;;;;;;5.37;1.20;;;;;;;;;;4983537;28;20684;-87
2021/10/07 13:17:10;;;;;;;29.50;3.40;;;;;;;;;;4994832;28;20186;-86
2021/10/07 13:20:18;;;;;;;3.43;1.10;;;;;;;;;;4987827;28;20186;-87
2021/10/07 13:23:21;;;;;;;6.77;1.70;;;;;;;;;;4996633;28;20226;-87
2021/10/07 13:26:32;;;;;;;17.60;2.27;;;;;;;;;;4985038;28;20186;-87
2021/10/07 13:29:38;;;;;;;13.07;6.60;;;;;;;;;;4983106;28;20183;-87
2021/10/07 13:32:50;;;;;;;11.67;8.53;;;;;;;;;;4994593;28;20209;-87
2021/10/07 13:35:54;;;;;;;41.00;5.53;;;;;;;;;;4994561;28;20182;-87
2021/10/07 13:39:01;;;;;;;43.73;3.53;;;;;;;;;;4983080;28;20181;-87
2021/10/07 13:42:05;;;;;;;17.63;2.60;;;;;;;;;;4994340;28;20226;-87
2021/10/07 13:45:10;;;;;;;2.77;1.83;;;;;;;;;;5005548;28;20189;-87
2021/10/07 13:48:17;;;;;;;32.40;5.27;;;;;;;;;;4982900;28;20190;-87
2021/10/07 13:51:22;;;;;;;6.20;2.60;;;;;;;;;;4993438;28;20190;-87
2021/10/07 13:54:26;;;;;;;4.73;2.20;;;;;;;;;;4993879;28;20202;-87
2021/10/07 13:57:31;;;;;;;45.07;5.63;;;;;;;;;;4982795;28;20186;-87
2021/10/07 14:00:40;;;;;;;13.03;4.23;;;;;;;;;;4994217;28;20625;-87
2021/10/07 14:03:44;;;;;;;7.10;2.83;;;;;;;;;;4993516;28;20218;-87
2021/10/07 14:06:48;;;;;;;23.83;6.37;;;;;;;;;;4994491;28;20186;-87
2021/10/07 14:09:52;;;;;;;36.07;4.43;;;;;;;;;;4993900;28;20182;-87
2021/10/07 14:12:57;;;;;;;3.37;1.53;;;;;;;;;;5004991;28;20210;-87
2021/10/07 14:16:03;;;;;;;11.20;2.50;;;;;;;;;;4993640;28;20182;-87
2021/10/07 14:19:10;;;;;;;9.27;2.07;;;;;;;;;;4993860;28;20182;-87
2021/10/07 14:22:14;;;;;;;12.00;2.40;;;;;;;;;;4993683;28;20221;-86
2021/10/07 14:25:21;;;;;;;11.00;3.30;;;;;;;;;;5005232;28;20182;-87
2021/10/07 14:28:25;;;;;;;3.57;2.37;;;;;;;;;;4993776;28;20186;-87
2021/10/07 14:31:29;;;;;;;8.53;1.80;;;;;;;;;;4983098;28;20642;-87
2021/10/07 14:34:34;;;;;;;3.30;1.60;;;;;;;;;;4982529;28;20178;-87
2021/10/07 14:37:38;;;;;;;2.73;1.47;;;;;;;;;;4982809;28;20511;-87
2021/10/07 14:40:42;;;;;;;20.83;2.80;;;;;;;;;;4994585;28;20178;-87
2021/10/07 14:43:47;;;;;;;20.37;2.83;;;;;;;;;;4982408;28;20217;-87
2021/10/07 14:46:51;;;;;;;18.67;2.60;;;;;;;;;;4982551;28;20182;-86
2021/10/07 14:49:55;;;;;;;13.73;1.77;;;;;;;;;;4994136;28;20186;-86
2021/10/07 14:52:59;;;;;;;12.00;3.00;;;;;;;;;;4982503;28;20213;-87
2021/10/07 14:56:04;;;;;;;8.20;2.20;;;;;;;;;;4982845;28;20515;-87
2021/10/07 14:59:08;;;;;;;73.97;4.97;;;;;;;;;;4982232;28;20202;-86
2021/10/07 15:02:12;;;;;;;15.60;1.90;;;;;;;;;;4983927;28;20221;-86
2021/10/07 15:05:17;;;;;;;29.60;2.73;;;;;;;;;;4997797;28;20190;-87
2021/10/07 15:08:21;;;;;;;6.07;2.73;;;;;;;;;;5008650;28;20182;-85
2021/10/07 15:11:25;;;;;;;4.47;3.00;;;;;;;;;;4996945;28;20633;-86
2021/10/07 15:14:29;;;;;;;29.80;3.10;;;;;;;;;;4997127;28;20178;-86
2021/10/07 15:17:34;;;;;;;13.37;5.60;;;;;;;;;;4996786;28;20190;-87
2021/10/07 15:20:44;;;;;;;9.63;2.17;;;;;;;;;;4997134;28;20186;-86
2021/10/07 15:23:49;;;;;;;16.43;2.53;;;;;;;;;;4996495;28;20221;-86
2021/10/07 15:26:53;;;;;;;1.80;1.60;;;;;;;;;;5007923;28;20186;-86
2021/10/07 15:29:57;;;;;;;4.47;1.70;;;;;;;;;;4996591;28;20186;-86
2021/10/07 15:33:01;;;;;;;14.13;2.10;;;;;;;;;;5007462;28;20222;-87
2021/10/07 15:36:05;;;;;;;2.20;1.37;;;;;;;;;;4996722;28;20178;-87
2021/10/07 15:39:09;;;;;;;2.90;1.20;;;;;;;;;;4996638;28;20514;-86
2021/10/07 15:42:16;;;;;;;20.63;2.50;;;;;;;;;;4985124;28;20214;-86
2021/10/07 15:45:21;;;;;;;4.10;1.40;;;;;;;;;;4973954;28;20550;-86
2021/10/07 15:48:25;;;;;;;4.30;1.40;;;;;;;;;;5007452;28;20633;-86
2021/10/07 15:51:29;;;;;;;11.63;2.00;;;;;;;;;;4996216;28;20182;-86
2021/10/07 15:54:33;;;;;;;25.20;3.20;;;;;;;;;;4996493;28;20174;-86
2021/10/07 15:57:41;;;;;;;12.90;2.00;;;;;;;;;;4996208;28;20182;-86
2021/10/07 16:00:45;;;;;;;7.67;2.00;;;;;;;;;;4995770;28;20182;-86
2021/10/07 16:03:49;;;;;;;2.57;1.60;;;;;;;;;;5016271;23;20229;-89
2021/10/07 16:06:53;;;;;;;3.10;1.60;;;;;;;;;;4982135;28;20632;-90
2021/10/07 16:09:57;;;;;;;3.77;2.10;;;;;;;;;;4993041;28;20181;-90
2021/10/07 16:13:04;;;;;;;3.87;1.80;;;;;;;;;;4980017;28;20217;-89
2021/10/07 16:16:09;;;;;;;2.00;1.80;;;;;;;;;;4988081;28;20193;-90
2021/10/07 16:19:13;;;;;;;4.30;1.90;;;;;;;;;;5003450;28;20192;-90
2021/10/07 16:22:19;;;;;;;2.80;1.70;;;;;;;;;;5003505;28;20529;-90
2021/10/07 16:25:23;;;;;;;6.50;2.07;;;;;;;;;;4998017;28;20281;-88
2021/10/07 16:28:30;;;;;;;2.67;1.80;;;;;;;;;;5010756;28;20205;-89
2021/10/07 16:31:34;;;;;;;4.03;1.93;;;;;;;;;;5000314;28;20197;-89
2021/10/07 16:34:38;;;;;;;4.57;2.20;;;;;;;;;;5000748;28;20229;-89
2021/10/07 16:37:42;;;;;;;31.33;3.43;;;;;;;;;;4981065;28;20182;-90
2021/10/07 16:40:48;;;;;;;7.03;2.60;;;;;;;;;;4981175;28;20823;-90
2021/10/07 16:43:52;;;;;;;5.13;2.60;;;;;;;;;;4989856;28;20221;-90
2021/10/07 16:46:56;;;;;;;3.73;2.40;;;;;;;;;;4989920;28;20185;-89
2021/10/07 16:50:27;;;;;;;10.07;2.00;;;;;;;;;;4969155;28;20202;-90
2021/10/07 16:53:34;;;;;;;4.83;2.40;;;;;;;;;;4984320;28;20224;-89
2021/10/07 16:56:39;;;;;;;7.73;2.50;;;;;;;;;;4994543;28;20189;-89
2021/10/07 16:59:44;;;;;;;6.37;2.60;;;;;;;;;;4999202;28;20185;-89
2021/10/07 17:02:48;;;;;;;5.20;2.70;;;;;;;;;;4999092;28;20232;-89
2021/10/07 17:05:53;;;;;;;3.53;2.90;;;;;;;;;;4998421;28;20537;-89
2021/10/07 17:09:00;;;;;;;9.47;4.30;;;;;;;;;;4987949;28;20173;-89
2021/10/07 17:12:05;;;;;;;5.87;4.37;;;;;;;;;;4999280;28;20182;-89
2021/10/07 17:15:10;;;;;;;7.30;4.20;;;;;;;;;;4999135;28;20637;-89
2021/10/07 17:18:14;;;;;;;5.60;3.30;;;;;;;;;;4987823;28;20201;-90
2021/10/07 17:21:18;;;;;;;6.60;2.93;;;;;;;;;;5010328;28;20209;-90
2021/10/07 17:24:22;;;;;;;6.67;3.00;;;;;;;;;;4986322;28;20220;-90
2021/10/07 17:27:27;;;;;;;4.60;2.90;;;;;;;;;;4999202;28;20661;-89
2021/10/07 17:30:33;;;;;;;3.50;2.73;;;;;;;;;;4987845;28;20193;-89
2021/10/07 17:33:37;;;;;;;3.37;3.03;;;;;;;;;;4998380;28;20680;-89
2021/10/07 17:36:41;;;;;;;4.40;3.20;;;;;;;;;;4998478;28;20197;-89
2021/10/07 17:39:46;;;;;;;8.00;4.30;;;;;;;;;;4992932;28;20213;-88
2021/10/07 17:42:51;;;;;;;6.47;4.53;;;;;;;;;;4998783;28;20224;-89
2021/10/07 17:45:55;;;;;;;7.67;4.70;;;;;;;;;;4975932;28;20683;-90
2021/10/07 17:48:59;;;;;;;8.57;4.10;;;;;;;;;;4998118;28;20197;-89
2021/10/07 17:52:06;;;;;;;10.13;6.00;;;;;;;;;;4998643;28;20538;-87
2021/10/07 17:55:12;;;;;;;7.97;5.77;;;;;;;;;;4999270;28;20210;-89
2021/10/07 17:58:16;;;;;;;7.90;5.10;;;;;;;;;;4998977;28;20193;-88
2021/10/07 18:01:21;;;;;;;4.83;3.90;;;;;;;;;;4972826;28;20198;-88
2021/10/07 18:04:25;;;;;;;4.93;3.43;;;;;;;;;;5009490;28;20217;-88
2021/10/07 18:07:30;;;;;;;7.00;3.90;;;;;;;;;;4998052;28;20430;-88
2021/10/07 18:10:34;;;;;;;5.70;3.60;;;;;;;;;;4977467;28;20201;-88
2021/10/07 18:13:38;;;;;;;5.53;3.80;;;;;;;;;;5000091;28;20221;-89
2021/10/07 18:16:43;;;;;;;5.47;4.47;;;;;;;;;;4999364;28;20632;-88
2021/10/07 18:19:48;;;;;;;6.10;4.70;;;;;;;;;;4998621;28;20185;-88
2021/10/07 18:22:54;;;;;;;10.63;6.13;;;;;;;;;;4997822;28;20216;-88
2021/10/07 18:25:59;;;;;;;10.97;6.33;;;;;;;;;;4986378;28;20189;-89
2021/10/07 18:29:03;;;;;;;14.87;8.67;;;;;;;;;;4987067;28;20194;-89
2021/10/07 18:32:08;;;;;;;11.50;8.17;;;;;;;;;;4986587;28;20189;-88